createdAt,value
2022-12-05T00:01:44.801Z,14.27
2022-12-05T00:04:14.199Z,12.63
2022-12-05T00:06:42.933Z,13.05
2022-12-05T00:09:11.905Z,13.75
2022-12-05T00:11:42.749Z,12.82
2022-12-05T00:14:11.360Z,14.07
2022-12-05T00:16:42.203Z,13.05
2022-12-05T00:19:12.620Z,13.57
2022-12-05T00:21:40.285Z,13.40
2022-12-05T00:24:09.492Z,13.18
2022-12-05T00:26:37.283Z,12.93
2022-12-05T00:29:05.184Z,14.20
2022-12-05T00:31:33.098Z,11.77
2022-12-05T00:34:03.472Z,14.30
2022-12-05T00:36:34.292Z,14.77
2022-12-05T00:39:04.794Z,14.25
2022-12-05T00:41:32.444Z,13.77
2022-12-05T00:44:01.893Z,13.27
2022-12-05T00:46:31.212Z,14.00
2022-12-05T00:49:00.602Z,14.45
2022-12-05T00:51:31.970Z,13.95
2022-12-05T00:54:00.516Z,14.15
2022-12-05T00:56:29.725Z,12.82
2022-12-05T00:58:58.868Z,13.18
2022-12-05T01:01:28.461Z,13.63
2022-12-05T01:03:57.864Z,14.90
2022-12-05T01:06:28.380Z,14.00
2022-12-05T01:08:58.276Z,14.45
2022-12-05T01:11:27.232Z,13.98
2022-12-05T01:13:55.844Z,14.43
2022-12-05T01:16:25.962Z,13.48
2022-12-05T01:18:54.068Z,13.88
2022-12-05T01:21:22.167Z,14.27
2022-12-05T01:23:50.661Z,13.60
2022-12-05T01:26:21.955Z,13.30
2022-12-05T01:28:50.060Z,14.20
2022-12-05T01:31:22.775Z,13.70
2022-12-05T01:33:50.591Z,13.43
2022-12-05T01:36:19.093Z,13.73
2022-12-05T01:38:49.358Z,12.80
2022-12-05T01:41:21.715Z,14.25
2022-12-05T01:43:58.405Z,14.30
2022-12-05T01:46:26.825Z,14.23
2022-12-05T01:48:58.989Z,13.90
2022-12-05T01:51:26.789Z,13.32
2022-12-05T01:53:56.635Z,13.77
2022-12-05T01:56:25.538Z,13.68
2022-12-05T01:58:54.484Z,12.77
2022-12-05T02:01:22.286Z,13.63
2022-12-05T02:03:53.414Z,14.57
2022-12-05T02:06:21.627Z,13.15
2022-12-05T02:08:50.295Z,14.43
2022-12-05T02:11:17.888Z,12.65
2022-12-05T02:14:16.049Z,13.27
2022-12-05T02:16:59.446Z,13.02
2022-12-05T02:19:53.775Z,14.13
2022-12-05T02:22:47.259Z,12.68
2022-12-05T02:25:27.028Z,13.27
2022-12-05T02:28:19.553Z,12.30
2022-12-05T02:30:55.490Z,12.65
2022-12-05T02:33:29.315Z,12.77
2022-12-05T02:36:05.692Z,12.98
2022-12-05T02:38:40.293Z,12.82
2022-12-05T02:41:17.109Z,12.93
2022-12-05T02:43:51.038Z,13.15
2022-12-05T02:46:22.944Z,13.25
2022-12-05T02:48:55.185Z,12.38
2022-12-05T02:51:26.947Z,13.20
2022-12-05T02:53:58.636Z,13.93
2022-12-05T02:56:27.627Z,13.63
2022-12-05T02:58:56.454Z,12.48
2022-12-05T03:01:30.077Z,13.05
2022-12-05T03:04:00.650Z,13.02
2022-12-05T03:06:31.292Z,12.65
2022-12-05T03:09:03.704Z,13.80
2022-12-05T03:11:35.988Z,13.70
2022-12-05T03:14:07.260Z,13.50
2022-12-05T03:16:42.401Z,13.52
2022-12-05T03:19:14.836Z,12.45
2022-12-05T03:21:50.956Z,12.70
2022-12-05T03:24:18.643Z,12.40
2022-12-05T03:26:54.432Z,12.57
2022-12-05T03:29:29.700Z,13.48
2022-12-05T03:32:07.888Z,13.43
2022-12-05T03:34:47.733Z,12.20
2022-12-05T03:37:21.212Z,12.02
2022-12-05T03:39:55.724Z,12.57
2022-12-05T03:42:31.897Z,11.80
2022-12-05T03:45:04.188Z,11.95
2022-12-05T03:47:40.719Z,12.35
2022-12-05T03:50:13.352Z,12.82
2022-12-05T03:53:18.062Z,13.68
2022-12-05T03:55:37.330Z,12.40
2022-12-05T03:58:09.899Z,12.48
2022-12-05T04:00:41.911Z,12.70
2022-12-05T04:03:15.326Z,12.35
2022-12-05T04:05:46.383Z,12.88
2022-12-05T04:08:20.673Z,13.18
2022-12-05T04:10:51.522Z,12.77
2022-12-05T04:13:22.426Z,11.73
2022-12-05T04:16:12.690Z,12.07
2022-12-05T04:18:48.598Z,12.48
2022-12-05T04:21:36.984Z,11.15
2022-12-05T04:24:22.824Z,11.55
2022-12-05T04:29:29.658Z,12.68
2022-12-05T04:32:02.040Z,12.70
2022-12-05T04:34:33.192Z,12.60
2022-12-05T04:37:05.960Z,12.38
2022-12-05T04:39:41.045Z,11.60
2022-12-05T04:42:11.039Z,12.25
2022-12-05T04:44:43.507Z,11.80
2022-12-05T04:47:14.784Z,11.63
2022-12-05T04:49:49.331Z,12.52
2022-12-05T04:52:22.077Z,11.75
2022-12-05T04:54:54.106Z,12.18
2022-12-05T04:57:25.747Z,13.40
2022-12-05T04:59:53.592Z,11.57
2022-12-05T05:02:30.102Z,11.02
2022-12-05T05:05:01.253Z,12.32
2022-12-05T05:07:29.248Z,11.80
2022-12-05T05:09:57.904Z,12.82
2022-12-05T05:12:25.523Z,12.25
2022-12-05T05:14:53.076Z,11.88
2022-12-05T05:17:20.560Z,13.48
2022-12-05T05:19:48.281Z,11.90
2022-12-05T05:22:17.084Z,10.73
2022-12-05T05:24:44.534Z,11.90
2022-12-05T05:27:11.979Z,12.35
2022-12-05T05:29:39.552Z,11.75
2022-12-05T05:32:07.052Z,11.25
2022-12-05T05:34:34.623Z,13.30
2022-12-05T05:37:02.042Z,11.52
2022-12-05T05:39:30.871Z,12.55
2022-12-05T05:41:58.319Z,12.38
2022-12-05T05:44:25.788Z,10.82
2022-12-05T05:46:53.333Z,11.07
2022-12-05T05:49:20.803Z,12.98
2022-12-05T05:51:48.266Z,11.07
2022-12-05T05:54:15.733Z,11.90
2022-12-05T05:56:44.535Z,11.07
2022-12-05T05:59:12.205Z,12.38
2022-12-05T06:01:39.699Z,12.65
2022-12-05T06:04:07.714Z,11.30
2022-12-05T06:06:35.540Z,11.50
2022-12-05T06:09:02.976Z,10.15
2022-12-05T06:11:30.722Z,11.00
2022-12-05T06:14:01.997Z,11.02
2022-12-05T06:16:30.160Z,10.85
2022-12-05T06:18:58.291Z,11.25
2022-12-05T06:21:25.850Z,11.23
2022-12-05T06:23:53.904Z,11.02
2022-12-05T06:26:22.753Z,10.90
2022-12-05T06:28:50.654Z,11.35
2022-12-05T06:31:21.558Z,11.15
2022-12-05T06:33:49.618Z,10.25
2022-12-05T06:36:20.777Z,10.15
2022-12-05T06:38:48.768Z,11.43
2022-12-05T06:41:19.142Z,10.75
2022-12-05T06:43:46.926Z,11.18
2022-12-05T06:46:15.902Z,11.10
2022-12-05T06:48:44.863Z,12.35
2022-12-05T06:51:13.943Z,10.50
2022-12-05T06:53:42.010Z,11.63
2022-12-05T06:56:13.537Z,10.70
2022-12-05T06:58:41.289Z,11.40
2022-12-05T07:01:35.572Z,11.05
2022-12-05T07:04:05.609Z,11.32
2022-12-05T07:06:33.879Z,9.98
2022-12-05T07:09:01.438Z,10.98
2022-12-05T07:11:28.976Z,10.45
2022-12-05T07:13:56.930Z,11.02
2022-12-05T07:16:24.824Z,10.38
2022-12-05T07:18:52.303Z,10.48
2022-12-05T07:21:21.944Z,10.07
2022-12-05T07:23:51.007Z,10.15
2022-12-05T07:26:21.416Z,10.70
2022-12-05T07:28:49.608Z,10.90
2022-12-05T07:31:18.784Z,10.50
2022-12-05T07:33:46.572Z,10.30
2022-12-05T07:36:16.443Z,9.25
2022-12-05T07:38:45.829Z,10.70
2022-12-05T07:41:17.994Z,10.07
2022-12-05T07:43:45.484Z,10.75
2022-12-05T07:46:13.037Z,10.05
2022-12-05T07:48:41.066Z,9.52
2022-12-05T07:51:10.680Z,10.48
2022-12-05T07:53:39.369Z,9.77
2022-12-05T07:56:10.093Z,9.85
2022-12-05T07:58:38.264Z,10.90
2022-12-05T08:01:10.441Z,10.20
2022-12-05T08:03:38.739Z,9.20
2022-12-05T08:06:08.611Z,9.60
2022-12-05T08:08:36.592Z,9.90
2022-12-05T08:11:05.526Z,10.25
2022-12-05T08:13:34.424Z,9.30
2022-12-05T08:16:03.406Z,9.55
2022-12-05T08:18:30.919Z,9.55
2022-12-05T08:21:03.075Z,9.55
2022-12-05T08:23:31.599Z,9.38
2022-12-05T08:26:03.904Z,8.77
2022-12-05T08:28:32.063Z,8.60
2022-12-05T08:31:05.953Z,9.45
2022-12-05T08:33:33.525Z,8.30
2022-12-05T08:36:04.796Z,8.75
2022-12-05T08:38:32.968Z,8.20
2022-12-05T08:41:02.145Z,9.13
2022-12-05T08:43:29.936Z,8.57
2022-12-05T08:45:57.674Z,8.73
2022-12-05T08:48:29.457Z,8.80
2022-12-05T08:50:57.868Z,9.25
2022-12-05T08:53:25.523Z,9.20
2022-12-05T08:55:55.157Z,8.93
2022-12-05T08:58:22.634Z,7.68
2022-12-05T09:00:50.116Z,8.35
2022-12-05T09:03:17.578Z,7.85
2022-12-05T09:05:46.379Z,7.82
2022-12-05T09:08:13.875Z,7.40
2022-12-05T09:10:41.420Z,7.57
2022-12-05T09:13:08.923Z,7.43
2022-12-05T09:15:39.325Z,7.38
2022-12-05T09:18:06.885Z,8.15
2022-12-05T09:20:34.332Z,7.82
2022-12-05T09:23:03.169Z,7.82
2022-12-05T09:25:30.648Z,7.88
2022-12-05T09:27:58.507Z,8.57
2022-12-05T09:30:25.960Z,7.85
2022-12-05T09:32:53.445Z,8.35
2022-12-05T09:35:21.611Z,7.25
2022-12-05T09:37:49.126Z,9.18
2022-12-05T09:40:19.501Z,9.43
2022-12-05T09:42:59.596Z,9.52
2022-12-05T09:45:31.167Z,9.55
2022-12-05T09:48:02.196Z,9.52
2022-12-05T09:50:31.439Z,7.78
2022-12-05T09:53:14.750Z,8.65
2022-12-05T09:55:50.641Z,9.32
2022-12-05T09:58:23.919Z,8.65
2022-12-05T10:00:55.798Z,8.63
2022-12-05T10:03:30.273Z,8.70
2022-12-05T10:06:10.844Z,8.80
2022-12-05T10:08:49.499Z,9.10
2022-12-05T10:11:24.137Z,8.43
2022-12-05T10:13:59.780Z,8.98
2022-12-05T10:16:33.410Z,8.95
2022-12-05T10:19:06.462Z,7.90
2022-12-05T10:21:38.664Z,9.43
2022-12-05T10:24:14.088Z,8.15
2022-12-05T10:29:24.751Z,8.23
2022-12-05T10:31:58.043Z,9.07
2022-12-05T10:34:32.751Z,9.18
2022-12-05T10:37:09.145Z,8.02
2022-12-05T10:39:37.446Z,8.73
2022-12-05T10:42:08.791Z,8.45
2022-12-05T10:44:37.325Z,9.13
2022-12-05T10:47:04.885Z,8.32
2022-12-05T10:49:33.938Z,9.02
2022-12-05T10:52:02.252Z,8.50
2022-12-05T10:54:31.936Z,8.60
2022-12-05T10:56:59.740Z,9.02
2022-12-05T10:59:46.907Z,9.80
2022-12-05T11:02:23.019Z,9.02
2022-12-05T11:04:50.827Z,9.13
2022-12-05T11:07:27.625Z,9.88
2022-12-05T11:09:55.673Z,9.60
2022-12-05T11:12:25.345Z,9.88
2022-12-05T11:15:04.517Z,8.88
2022-12-05T11:17:35.103Z,8.25
2022-12-05T11:20:03.346Z,8.40
2022-12-05T11:22:36.509Z,8.40
2022-12-05T11:25:29.859Z,9.18
2022-12-05T11:28:01.182Z,8.75
2022-12-05T11:30:30.741Z,8.95
2022-12-05T11:33:13.470Z,9.40
2022-12-05T11:35:41.665Z,9.23
2022-12-05T11:38:12.781Z,9.18
2022-12-05T11:40:54.426Z,9.20
2022-12-05T11:43:43.761Z,8.63
2022-12-05T11:46:26.480Z,9.77
2022-12-05T11:49:13.856Z,10.52
2022-12-05T11:51:45.073Z,10.30
2022-12-05T11:55:04.636Z,10.10
2022-12-05T11:57:52.723Z,9.63
2022-12-05T12:00:24.389Z,10.10
2022-12-05T12:03:32.577Z,9.15
2022-12-05T12:06:16.822Z,9.30
2022-12-05T12:08:57.641Z,9.82
2022-12-05T12:11:32.406Z,8.95
2022-12-05T12:14:10.793Z,7.85
2022-12-05T12:16:46.941Z,8.82
2022-12-05T12:19:30.059Z,9.07
2022-12-05T12:22:13.376Z,8.20
2022-12-05T12:25:02.517Z,7.43
2022-12-05T12:27:42.212Z,8.40
2022-12-05T12:30:16.487Z,8.80
2022-12-05T12:32:57.106Z,9.35
2022-12-05T12:35:30.623Z,9.23
2022-12-05T12:38:10.036Z,8.80
2022-12-05T12:40:47.314Z,9.50
2022-12-05T12:43:52.564Z,8.73
2022-12-05T12:46:23.317Z,7.97
2022-12-05T12:49:17.987Z,8.20
2022-12-05T12:51:52.512Z,9.07
2022-12-05T12:55:03.448Z,8.30
2022-12-05T12:57:42.488Z,8.52
2022-12-05T13:00:19.463Z,9.02
2022-12-05T13:02:53.221Z,9.13
2022-12-05T13:05:28.536Z,9.77
2022-12-05T13:08:00.795Z,8.25
2022-12-05T13:10:34.755Z,8.15
2022-12-05T13:13:04.855Z,8.30
2022-12-05T13:15:37.148Z,7.22
2022-12-05T13:18:08.421Z,7.93
2022-12-05T13:20:37.285Z,8.20
2022-12-05T13:23:08.424Z,8.20
2022-12-05T13:25:40.016Z,8.43
2022-12-05T13:28:25.889Z,8.75
2022-12-05T13:31:02.457Z,8.73
2022-12-05T13:33:36.868Z,8.80
2022-12-05T13:36:27.252Z,10.00
2022-12-05T13:39:22.276Z,9.65
2022-12-05T13:42:09.842Z,8.32
2022-12-05T13:44:41.561Z,8.38
2022-12-05T13:47:24.785Z,8.82
2022-12-05T13:49:57.607Z,8.57
2022-12-05T13:52:29.908Z,9.68
2022-12-05T13:55:03.880Z,8.80
2022-12-05T13:57:53.158Z,9.32
2022-12-05T14:00:31.100Z,7.93
2022-12-05T14:03:17.181Z,8.88
2022-12-05T14:05:54.614Z,8.45
2022-12-05T14:08:52.323Z,8.95
2022-12-05T14:11:20.050Z,8.73
2022-12-05T14:13:47.768Z,8.77
2022-12-05T14:16:53.091Z,8.63
2022-12-05T14:19:47.365Z,9.02
2022-12-05T14:22:43.966Z,8.73
2022-12-05T14:25:24.869Z,8.85
2022-12-05T14:28:01.583Z,10.30
2022-12-05T14:30:42.725Z,10.23
2022-12-05T14:33:16.287Z,10.48
2022-12-05T14:35:48.190Z,9.80
2022-12-05T14:38:24.691Z,8.88
2022-12-05T14:40:52.385Z,9.23
2022-12-05T14:43:23.165Z,10.38
2022-12-05T14:46:00.243Z,10.43
2022-12-05T14:48:31.209Z,11.75
2022-12-05T14:51:00.025Z,15.60
2022-12-05T14:53:32.894Z,14.10
2022-12-05T14:56:07.757Z,12.10
2022-12-05T14:58:38.396Z,12.27
2022-12-05T15:01:09.991Z,11.85
2022-12-05T15:03:41.928Z,12.00
2022-12-05T15:06:15.756Z,11.52
2022-12-05T15:08:48.583Z,11.18
2022-12-05T15:11:28.294Z,10.13
2022-12-05T15:14:01.577Z,9.95
2022-12-05T15:16:30.246Z,9.07
2022-12-05T15:19:01.764Z,10.20
2022-12-05T15:21:34.412Z,8.75
2022-12-05T15:24:05.550Z,8.57
2022-12-05T15:26:48.313Z,9.57
2022-12-05T15:29:18.260Z,8.25
2022-12-05T15:31:47.888Z,8.75
2022-12-05T15:34:19.609Z,8.73
2022-12-05T15:36:51.517Z,8.95
2022-12-05T15:39:28.421Z,8.68
2022-12-05T15:41:57.948Z,8.60
2022-12-05T15:44:34.398Z,7.90
2022-12-05T15:47:05.125Z,7.55
2022-12-05T15:49:32.659Z,8.13
2022-12-05T15:52:11.082Z,7.90
2022-12-05T15:54:40.947Z,9.02
2022-12-05T15:57:13.459Z,8.43
2022-12-05T15:59:46.938Z,8.15
2022-12-05T16:02:20.995Z,8.40
2022-12-05T16:04:52.686Z,8.40
2022-12-05T16:07:22.581Z,7.90
2022-12-05T16:09:51.913Z,8.15
2022-12-05T16:12:25.871Z,8.10
2022-12-05T16:15:01.047Z,8.40
2022-12-05T16:17:30.978Z,7.72
2022-12-05T16:20:12.404Z,7.70
2022-12-05T16:22:44.973Z,8.27
2022-12-05T16:25:17.563Z,7.82
2022-12-05T16:27:57.588Z,8.40
2022-12-05T16:30:26.058Z,7.63
2022-12-05T16:33:01.537Z,7.68
2022-12-05T16:38:11.846Z,7.15
2022-12-05T16:40:42.223Z,7.55
2022-12-05T16:43:20.396Z,7.32
2022-12-05T16:45:49.586Z,7.68
2022-12-05T16:48:21.760Z,8.48
2022-12-05T16:50:51.046Z,8.85
2022-12-05T16:53:22.590Z,8.07
2022-12-05T16:55:51.452Z,8.95
2022-12-05T16:58:23.315Z,8.25
2022-12-05T17:00:52.234Z,8.13
2022-12-05T17:03:34.542Z,7.47
2022-12-05T17:06:02.717Z,7.75
2022-12-05T17:08:30.234Z,8.07
2022-12-05T17:11:01.316Z,8.02
2022-12-05T17:13:29.179Z,8.07
2022-12-05T17:15:56.769Z,8.52
2022-12-05T17:18:30.932Z,8.40
2022-12-05T17:21:02.240Z,7.40
2022-12-05T17:23:29.748Z,8.02
2022-12-05T17:26:00.049Z,7.88
2022-12-05T17:28:27.502Z,8.32
2022-12-05T17:30:54.968Z,9.65
2022-12-05T17:33:22.411Z,8.18
2022-12-05T17:35:50.919Z,7.85
2022-12-05T17:38:18.607Z,7.10
2022-12-05T17:40:46.771Z,6.78
2022-12-05T17:43:19.914Z,7.65
2022-12-05T17:45:50.690Z,8.18
2022-12-05T17:48:18.145Z,8.07
2022-12-05T17:50:47.592Z,9.48
2022-12-05T17:53:17.127Z,8.68
2022-12-05T17:55:48.010Z,7.93
2022-12-05T17:58:17.517Z,7.85
2022-12-05T18:00:46.495Z,6.55
2022-12-05T18:03:16.321Z,7.28
2022-12-05T18:05:44.543Z,6.72
2022-12-05T18:08:13.203Z,7.40
2022-12-05T18:10:42.735Z,6.82
2022-12-05T18:13:10.716Z,7.80
2022-12-05T18:15:43.031Z,7.22
2022-12-05T18:18:14.432Z,8.38
2022-12-05T18:20:41.871Z,7.82
2022-12-05T18:23:09.652Z,8.10
2022-12-05T18:25:37.269Z,8.43
2022-12-05T18:28:04.824Z,7.05
2022-12-05T18:30:32.303Z,7.72
2022-12-05T18:33:01.136Z,7.15
2022-12-05T18:35:41.084Z,7.30
2022-12-05T18:38:08.838Z,8.60
2022-12-05T18:40:36.314Z,8.50
2022-12-05T18:43:04.325Z,7.65
2022-12-05T18:45:31.901Z,8.60
2022-12-05T18:48:22.942Z,8.07
2022-12-05T18:50:48.390Z,8.68
2022-12-05T18:53:15.895Z,9.27
2022-12-05T18:56:13.016Z,10.30
2022-12-05T18:58:30.844Z,11.63
2022-12-05T19:01:04.996Z,10.25
2022-12-05T19:03:34.824Z,8.40
2022-12-05T19:06:02.784Z,8.35
2022-12-05T19:08:30.301Z,8.88
2022-12-05T19:10:57.829Z,9.82
2022-12-05T19:13:25.341Z,8.88
2022-12-05T19:15:52.824Z,9.32
2022-12-05T19:18:20.279Z,7.85
2022-12-05T19:20:52.767Z,8.75
2022-12-05T19:23:20.228Z,7.75
2022-12-05T19:25:47.756Z,8.18
2022-12-05T19:28:15.475Z,7.80
2022-12-05T19:30:42.987Z,7.22
2022-12-05T19:33:10.510Z,7.00
2022-12-05T19:35:38.298Z,7.57
2022-12-05T19:38:07.096Z,7.80
2022-12-05T19:40:34.628Z,7.57
2022-12-05T19:43:04.185Z,7.80
2022-12-05T19:45:31.707Z,7.82
2022-12-05T19:47:59.182Z,8.32
2022-12-05T19:50:26.656Z,7.30
2022-12-05T19:52:54.174Z,8.20
2022-12-05T19:55:22.994Z,8.45
2022-12-05T19:57:50.495Z,8.88
2022-12-05T20:00:19.745Z,9.45
2022-12-05T20:02:50.232Z,8.10
2022-12-05T20:05:18.076Z,9.20
2022-12-05T20:07:45.638Z,9.90
2022-12-05T20:10:13.206Z,9.13
2022-12-05T20:12:42.092Z,8.35
2022-12-05T20:15:10.386Z,9.00
2022-12-05T20:17:37.936Z,8.30
2022-12-05T20:20:06.451Z,9.45
2022-12-05T20:22:34.012Z,9.27
2022-12-05T20:25:01.849Z,8.02
2022-12-05T20:27:29.423Z,8.52
2022-12-05T20:29:58.510Z,8.63
2022-12-05T20:32:26.297Z,8.73
2022-12-05T20:34:54.029Z,8.30
2022-12-05T20:37:22.789Z,8.88
2022-12-05T20:39:51.002Z,9.07
2022-12-05T20:42:18.614Z,9.18
2022-12-05T20:44:46.146Z,9.40
2022-12-05T20:47:14.986Z,8.45
2022-12-05T20:49:42.469Z,8.82
2022-12-05T20:52:09.948Z,8.65
2022-12-05T20:54:37.435Z,9.10
2022-12-05T20:57:04.924Z,9.23
2022-12-05T20:59:32.390Z,9.13
2022-12-05T21:01:59.946Z,8.68
2022-12-05T21:04:29.005Z,8.80
2022-12-05T21:06:57.373Z,8.55
2022-12-05T21:09:28.497Z,8.30
2022-12-05T21:11:56.644Z,8.82
2022-12-05T21:14:24.637Z,8.82
2022-12-05T21:16:53.081Z,7.70
2022-12-05T21:19:20.748Z,8.10
2022-12-05T21:21:49.560Z,7.45
2022-12-05T21:24:17.058Z,8.13
2022-12-05T21:26:44.537Z,8.50
2022-12-05T21:29:12.005Z,7.38
2022-12-05T21:31:42.063Z,7.40
2022-12-05T21:34:14.892Z,7.32
2022-12-05T21:36:43.383Z,7.05
2022-12-05T21:39:13.047Z,7.57
2022-12-05T21:41:40.684Z,7.00
2022-12-05T21:44:08.521Z,7.00
2022-12-05T21:46:36.093Z,7.18
2022-12-05T21:49:03.633Z,6.95
2022-12-05T21:51:31.850Z,6.70
2022-12-05T21:53:59.352Z,7.75
2022-12-05T21:56:28.667Z,7.18
2022-12-05T21:58:56.236Z,6.95
2022-12-05T22:01:25.728Z,7.22
2022-12-05T22:03:54.160Z,7.05
2022-12-05T22:06:21.915Z,6.53
2022-12-05T22:08:49.815Z,6.57
2022-12-05T22:11:19.129Z,6.70
2022-12-05T22:13:49.014Z,6.53
2022-12-05T22:16:17.189Z,7.25
2022-12-05T22:18:44.890Z,6.68
2022-12-05T22:21:14.354Z,6.45
2022-12-05T22:23:42.405Z,6.30
2022-12-05T22:26:12.428Z,7.60
2022-12-05T22:28:40.250Z,7.25
2022-12-05T22:31:12.389Z,7.50
2022-12-05T22:33:40.454Z,6.38
2022-12-05T22:36:09.831Z,6.82
2022-12-05T22:38:39.158Z,6.50
2022-12-05T22:41:08.500Z,6.43
2022-12-05T22:43:38.205Z,7.18
2022-12-05T22:46:07.249Z,6.35
2022-12-05T22:48:36.703Z,6.93
2022-12-05T22:51:05.981Z,6.65
2022-12-05T22:53:33.504Z,6.25
2022-12-05T22:56:05.920Z,6.60
2022-12-05T22:58:33.738Z,6.75
2022-12-05T23:01:09.863Z,7.10
2022-12-05T23:03:38.900Z,6.95
2022-12-05T23:06:11.461Z,6.82
2022-12-05T23:08:40.941Z,7.68
2022-12-05T23:11:09.171Z,7.43
2022-12-05T23:13:37.567Z,6.93
2022-12-05T23:16:09.849Z,7.38
2022-12-05T23:18:47.466Z,7.13
2022-12-05T23:21:17.348Z,6.60
2022-12-05T23:23:45.361Z,6.65
2022-12-05T23:26:14.077Z,6.65
2022-12-05T23:28:42.051Z,7.55
2022-12-05T23:31:10.953Z,6.45
2022-12-05T23:33:40.224Z,7.03
2022-12-05T23:36:09.912Z,6.70
2022-12-05T23:38:37.816Z,7.35
2022-12-05T23:41:07.853Z,6.60
2022-12-05T23:43:36.702Z,6.22
2022-12-05T23:46:05.466Z,6.47
2022-12-05T23:48:33.526Z,6.40
2022-12-05T23:51:04.448Z,5.93
2022-12-05T23:53:34.604Z,6.45
2022-12-05T23:56:02.675Z,6.10
2022-12-05T23:58:31.524Z,6.32
